CST,Max TemperatureF,Mean TemperatureF,Min TemperatureF,Max Dew PointF,MeanDew PointF,Min DewpointF,Max Humidity, Mean Humidity, Min Humidity, Max Sea Level PressureIn, Mean Sea Level PressureIn, Min Sea Level PressureIn, Max VisibilityMiles, Mean VisibilityMiles, Min VisibilityMiles, Max Wind SpeedMPH, Mean Wind SpeedMPH, Max Gust SpeedMPH,PrecipitationIn, CloudCover, Events, WindDirDegrees
2013-1-1,21,11,1,7,0,-6,78,64,42,30.29,30.21,30.13,10,10,10,14,8,18,0.00,0,,290
2013-1-2,28,20,12,25,16,3,86,78,67,30.18,30.08,30.03,10,9,4,15,8,,0.00,4,Snow,241
2013-1-3,28,19,10,25,14,7,86,77,63,30.37,30.30,30.18,10,10,10,23,10,26,0.00,3,,281
2013-1-4,37,24,12,23,18,9,86,72,48,30.30,30.22,30.16,10,10,10,16,10,20,0.00,0,,222
2013-1-5,39,32,24,30,23,18,86,77,65,30.15,30.06,29.95,10,10,7,21,12,28,0.00,4,,229
2013-1-6,35,25,15,19,16,10,80,70,52,30.31,30.23,30.11,10,10,10,23,13,31,0.00,1,,255
2013-1-7,46,35,24,28,22,18,86,65,43,30.18,30.06,29.99,10,10,10,24,13,30,0.00,0,,195
2013-1-8,46,37,28,32,28,23,86,73,53,30.12,29.95,29.83,10,10,10,22,11,31,0.00,0,,198
2013-1-9,48,38,28,36,28,21,86,73,52,30.43,30.33,30.12,10,10,10,10,5,,0.00,0,,216
2013-1-10,42,38,33,36,30,21,93,76,49,30.37,30.01,29.72,10,6,0,20,9,,0.08,6,Fog-Rain,132
2013-1-11,51,44,37,45,41,30,93,85,50,29.72,29.58,29.47,10,6,0,32,10,38,0.01,5,Fog-Rain,177
2013-1-12,35,25,14,30,12,5,87,66,54,30.09,29.98,29.65,10,10,7,30,18,36,0.00,4,Snow,295
2013-1-13,21,14,6,7,2,0,79,65,46,30.31,30.17,30.05,10,10,7,18,12,22,0.00,2,,298
2013-1-14,28,16,5,10,4,0,79,59,31,30.45,30.38,30.31,10,10,10,9,4,,0.00,0,,230
2013-1-15,32,22,12,12,8,5,79,58,32,30.36,30.24,30.07,10,10,10,12,7,,0.00,0,,203
2013-1-16,48,34,19,30,21,9,81,64,46,30.19,30.00,29.92,10,10,10,17,12,23,0.00,3,,257
2013-1-17,41,29,17,27,17,7,86,66,37,30.45,30.36,30.20,10,10,10,12,7,,0.00,1,,316
2013-1-18,55,42,28,30,27,23,86,63,31,30.33,30.06,29.91,10,10,10,31,15,39,0.00,0,,207
2013-1-19,53,37,19,30,25,7,81,60,33,30.28,30.00,29.86,10,10,10,25,13,34,0.00,0,,275
2013-1-20,17,12,8,10,5,1,85,67,49,30.37,30.33,30.28,10,10,4,17,10,25,0.00,4,Snow,335
2013-1-21,12,6,1,3,-6,-11,67,55,41,30.41,30.35,30.33,10,10,10,20,13,31,0.00,3,,309
2013-1-22,15,10,6,1,-2,-8,73,57,45,30.39,30.32,30.26,10,10,10,7,0,,0.00,6,Snow,169
2013-1-23,33,20,5,14,7,-8,85,62,41,30.48,30.25,30.16,10,10,10,22,8,30,0.00,0,,324
2013-1-24,19,10,1,5,-7,-9,66,47,30,30.53,30.39,30.18,10,10,10,17,12,22,0.00,1,,98
2013-1-25,44,27,10,19,14,7,85,61,31,30.25,30.14,30.09,10,10,10,22,9,30,0.00,1,,291
2013-1-26,42,26,10,14,8,1,73,51,27,30.29,30.21,30.10,10,10,10,16,10,20,0.00,0,,118
2013-1-27,46,38,30,43,32,14,93,82,44,30.09,29.86,29.73,10,3,0,20,12,25,0.21,7,Fog-Rain,154
2013-1-28,55,45,35,54,40,32,94,90,87,29.89,29.77,29.59,10,2,0,17,7,23,0.10,7,Fog-Rain,118
2013-1-29,60,45,30,55,35,27,94,86,80,29.68,29.59,29.53,10,5,0,22,13,29,0.01,7,Fog-Rain-Snow,338
2013-1-30,30,24,15,27,16,9,86,77,63,29.87,29.69,29.52,10,4,0,31,21,39,0.03,8,Snow,313
2013-1-31,15,8,-2,9,-4,-11,79,64,56,30.36,30.11,29.88,10,9,2,26,15,36,0.00,4,Snow,295